Aquabridge — D5PJ7 — position and weather

sailwx.info

Track history (hours):
 
Tides and Currents Weather Stations Pressure Air Temp Water Temp Dewpoint Dewpoint Depression Visibility Wind Speed Wind Dir Waves Ship Positions

Aquabridge

Last reported at 2018-May-26 13:08 UTC. Time now 2018-Jun-25 09:50 UTC.
Position N 25°17' E 120°50'.
Warning: this ship's position is 29 days out of date.

Length 289 m; draft 17.4 m.

Type: Cargo ship. MMSI: 636018366.

Date/timePositionNaut miles runAvg speedWind from/ knotsBaromVisibWave heightAir tempDewpointWater temp
2018-May-26 13:08N 25°17' E 120°50'212.6
2018-May-26 13:00N 25°16' E 120°49'612.3
2018-May-26 12:30N 25°10' E 120°46'912.1
2018-May-26 11:43N 25°03' E 120°40'312.0
2018-May-26 11:30N 25°00' E 120°39'712.3
2018-May-26 10:58N 24°55' E 120°34'612.8
2018-May-26 10:30N 24°50' E 120°31'12112.3
2018-May-26 00:42N 22°54' E 119°53'312.5
2018-May-26 00:29N 22°52' E 119°53'712.2
2018-May-25 23:56N 22°45' E 119°53'612.6
2018-May-25 23:29N 22°39' E 119°52'612.9
2018-May-25 23:01N 22°33' E 119°52'  
2018-May-20 15:11N 01°32' E 104°35'410.7
2018-May-20 14:47N 01°28' E 104°32'311.3
2018-May-20 14:29N 01°26' E 104°30'511.6
2018-May-20 14:01N 01°22' E 104°25'610.7
2018-May-20 13:29N 01°18' E 104°21'510.6
2018-May-20 13:00N 01°17' E 104°17'610.8
2018-May-20 12:27N 01°16' E 104°11'511.1
2018-May-20 12:00N 01°15' E 104°06'510.1
2018-May-20 11:30N 01°15' E 104°01'4 7.6
2018-May-20 11:00N 01°16' E 103°57'1 1.9
2018-May-20 10:20N 01°17' E 103°56'0 0.1
2018-May-20 09:59N 01°17' E 103°56'0 0.2
2018-May-20 09:29N 01°17' E 103°56'0 0.1
2018-May-20 08:50N 01°17' E 103°56'0 0.0
2018-May-20 08:30N 01°17' E 103°56'0 0.1
2018-May-20 07:59N 01°17' E 103°56'0 0.0
2018-May-20 07:29N 01°17' E 103°56'0 0.0
2018-May-20 06:59N 01°17' E 103°56'0 0.1
2018-May-20 06:20N 01°17' E 103°56'0 0.0
2018-May-20 05:59N 01°17' E 103°56'0 0.0
2018-May-20 05:30N 01°17' E 103°56'0 0.0
2018-May-20 04:56N 01°17' E 103°56'0 0.1
2018-May-20 04:29N 01°17' E 103°56'0 0.0
2018-May-20 03:53N 01°17' E 103°56'0 0.0
2018-May-20 03:29N 01°17' E 103°56'0 0.0
2018-May-20 02:56N 01°17' E 103°56'0 0.0
2018-May-20 02:26N 01°17' E 103°56'0 0.0
2018-May-20 01:59N 01°17' E 103°56'0 0.0
2018-May-20 01:29N 01°17' E 103°56'0 0.0
2018-May-20 00:59N 01°17' E 103°56'0 0.1
2018-May-20 00:29N 01°17' E 103°56'0 0.0
2018-May-19 23:59N 01°17' E 103°56'0 0.0
2018-May-19 23:14N 01°17' E 103°56'0 0.0
2018-May-19 22:59N 01°17' E 103°56'0 0.0
2018-May-19 22:30N 01°17' E 103°56'0 0.0
2018-May-19 21:48N 01°17' E 103°56'0 0.0
2018-May-19 21:30N 01°17' E 103°56'0 0.0
2018-May-19 20:53N 01°17' E 103°56'0 0.0
2018-May-19 20:29N 01°17' E 103°56'0 0.2
2018-May-19 20:00N 01°17' E 103°56'0 0.1
2018-May-19 19:23N 01°17' E 103°56'0 0.7
2018-May-19 19:00N 01°17' E 103°57'2 3.4
2018-May-19 18:29N 01°15' E 103°57'3 5.8
2018-May-19 18:01N 01°13' E 103°55'510.5
2018-May-19 17:30N 01°11' E 103°50'511.0
2018-May-19 17:01N 01°08' E 103°45'510.4
2018-May-19 16:30N 01°05' E 103°41'5 9.4
2018-May-19 16:00N 01°04' E 103°37'611.1
2018-May-19 15:30N 01°07' E 103°32'610.7
2018-May-19 14:55N 01°10' E 103°27'511.1
2018-May-19 14:30N 01°13' E 103°23'510.6
2018-May-19 14:00N 01°16' E 103°19'610.7
2018-May-19 13:28N 01°20' E 103°14'510.9
2018-May-19 13:00N 01°23' E 103°10'  
Track history (hours):
 
Tides and Currents Weather Stations Pressure Air Temp Water Temp Dewpoint Dewpoint Depression Visibility Wind Speed Wind Dir Waves Ship Positions

Aquabridge

Last reported at 2018-May-26 13:08 UTC. Time now 2018-Jun-25 09:50 UTC.
Position N 25°17' E 120°50'.
Warning: this ship's position is 29 days out of date.

Length 289 m; draft 17.4 m.

Type: Cargo ship. MMSI: 636018366.

Date/timePositionNaut miles runAvg speedWind from/ knotsBaromVisibWave heightAir tempDewpointWater temp
2018-May-26 13:08N 25°17' E 120°50'212.6
2018-May-26 13:00N 25°16' E 120°49'612.3
2018-May-26 12:30N 25°10' E 120°46'912.1
2018-May-26 11:43N 25°03' E 120°40'312.0
2018-May-26 11:30N 25°00' E 120°39'712.3
2018-May-26 10:58N 24°55' E 120°34'612.8
2018-May-26 10:30N 24°50' E 120°31'12112.3
2018-May-26 00:42N 22°54' E 119°53'312.5
2018-May-26 00:29N 22°52' E 119°53'712.2
2018-May-25 23:56N 22°45' E 119°53'612.6
2018-May-25 23:29N 22°39' E 119°52'612.9
2018-May-25 23:01N 22°33' E 119°52'  
2018-May-20 15:11N 01°32' E 104°35'410.7
2018-May-20 14:47N 01°28' E 104°32'311.3
2018-May-20 14:29N 01°26' E 104°30'511.6
2018-May-20 14:01N 01°22' E 104°25'610.7
2018-May-20 13:29N 01°18' E 104°21'510.6
2018-May-20 13:00N 01°17' E 104°17'610.8
2018-May-20 12:27N 01°16' E 104°11'511.1
2018-May-20 12:00N 01°15' E 104°06'510.1
2018-May-20 11:30N 01°15' E 104°01'4 7.6
2018-May-20 11:00N 01°16' E 103°57'1 1.9
2018-May-20 10:20N 01°17' E 103°56'0 0.1
2018-May-20 09:59N 01°17' E 103°56'0 0.2
2018-May-20 09:29N 01°17' E 103°56'0 0.1
2018-May-20 08:50N 01°17' E 103°56'0 0.0
2018-May-20 08:30N 01°17' E 103°56'0 0.1
2018-May-20 07:59N 01°17' E 103°56'0 0.0
2018-May-20 07:29N 01°17' E 103°56'0 0.0
2018-May-20 06:59N 01°17' E 103°56'0 0.1
2018-May-20 06:20N 01°17' E 103°56'0 0.0
2018-May-20 05:59N 01°17' E 103°56'0 0.0
2018-May-20 05:30N 01°17' E 103°56'0 0.0
2018-May-20 04:56N 01°17' E 103°56'0 0.1
2018-May-20 04:29N 01°17' E 103°56'0 0.0
2018-May-20 03:53N 01°17' E 103°56'0 0.0
2018-May-20 03:29N 01°17' E 103°56'0 0.0
2018-May-20 02:56N 01°17' E 103°56'0 0.0
2018-May-20 02:26N 01°17' E 103°56'0 0.0
2018-May-20 01:59N 01°17' E 103°56'0 0.0
2018-May-20 01:29N 01°17' E 103°56'0 0.0
2018-May-20 00:59N 01°17' E 103°56'0 0.1
2018-May-20 00:29N 01°17' E 103°56'0 0.0
2018-May-19 23:59N 01°17' E 103°56'0 0.0
2018-May-19 23:14N 01°17' E 103°56'0 0.0
2018-May-19 22:59N 01°17' E 103°56'0 0.0
2018-May-19 22:30N 01°17' E 103°56'0 0.0
2018-May-19 21:48N 01°17' E 103°56'0 0.0
2018-May-19 21:30N 01°17' E 103°56'0 0.0
2018-May-19 20:53N 01°17' E 103°56'0 0.0
2018-May-19 20:29N 01°17' E 103°56'0 0.2
2018-May-19 20:00N 01°17' E 103°56'0 0.1
2018-May-19 19:23N 01°17' E 103°56'0 0.7
2018-May-19 19:00N 01°17' E 103°57'2 3.4
2018-May-19 18:29N 01°15' E 103°57'3 5.8
2018-May-19 18:01N 01°13' E 103°55'510.5
2018-May-19 17:30N 01°11' E 103°50'511.0
2018-May-19 17:01N 01°08' E 103°45'510.4
2018-May-19 16:30N 01°05' E 103°41'5 9.4
2018-May-19 16:00N 01°04' E 103°37'611.1
2018-May-19 15:30N 01°07' E 103°32'610.7
2018-May-19 14:55N 01°10' E 103°27'511.1
2018-May-19 14:30N 01°13' E 103°23'510.6
2018-May-19 14:00N 01°16' E 103°19'610.7
2018-May-19 13:28N 01°20' E 103°14'510.9
2018-May-19 13:00N 01°23' E 103°10'  

Dump ship's entire track history